createdAt,value
2023-01-29T00:01:17.911Z,-3.7
2023-01-29T00:03:17.167Z,-3.6
2023-01-29T00:05:27.340Z,-3.6
2023-01-29T00:07:16.138Z,-3.7
2023-01-29T00:09:15.643Z,-3.6
2023-01-29T00:11:15.649Z,-3.8
2023-01-29T00:13:14.108Z,-3.8
2023-01-29T00:15:13.809Z,-3.7
2023-01-29T00:17:12.948Z,-3.7
2023-01-29T00:19:12.547Z,-3.6
2023-01-29T00:21:13.504Z,-3.5
2023-01-29T00:23:11.326Z,-3.6
2023-01-29T00:25:11.125Z,-3.6
2023-01-29T00:27:10.103Z,-3.6
2023-01-29T00:31:10.559Z,-3.7
2023-01-29T00:33:08.235Z,-3.8
2023-01-29T00:35:08.563Z,-3.8
2023-01-29T00:37:07.854Z,-3.8
2023-01-29T00:39:09.674Z,-3.8
2023-01-29T00:41:16.159Z,-3.7
2023-01-29T00:43:15.160Z,-3.7
2023-01-29T00:47:14.814Z,-3.8
2023-01-29T00:49:03.876Z,-3.9
2023-01-29T00:51:03.213Z,-3.9
2023-01-29T00:53:02.337Z,-3.7
2023-01-29T00:55:04.079Z,-3.8
2023-01-29T00:57:01.748Z,-3.7
2023-01-29T00:59:00.691Z,-3.7
2023-01-29T01:01:01.211Z,-3.7
2023-01-29T01:03:06.447Z,-3.8
2023-01-29T01:04:58.776Z,-3.8
2023-01-29T01:06:58.023Z,-3.8
2023-01-29T01:09:07.103Z,-3.9
2023-01-29T01:10:59.638Z,-4.2
2023-01-29T01:12:58.260Z,-4.3
2023-01-29T01:14:55.698Z,-4.2
2023-01-29T01:16:54.781Z,-4.2
2023-01-29T01:20:57.976Z,-4.4
2023-01-29T01:22:53.916Z,-4.3
2023-01-29T01:24:52.329Z,-4.3
2023-01-29T01:26:51.674Z,-4.1
2023-01-29T01:30:50.573Z,-4.1
2023-01-29T01:32:50.360Z,-4.1
2023-01-29T01:34:51.180Z,-4.0
2023-01-29T01:36:48.950Z,-4.1
2023-01-29T01:38:48.204Z,-4.2
2023-01-29T01:40:47.342Z,-4.2
2023-01-29T01:42:48.429Z,-4.3
2023-01-29T01:44:55.787Z,-4.4
2023-01-29T01:46:45.924Z,-4.4
2023-01-29T01:48:50.433Z,-4.4
2023-01-29T01:50:49.153Z,-4.3
2023-01-29T01:52:47.499Z,-4.3
2023-01-29T01:54:43.632Z,-4.3
2023-01-29T01:56:46.217Z,-4.4
2023-01-29T01:58:46.235Z,-4.4
2023-01-29T02:00:41.887Z,-4.4
2023-01-29T02:02:53.264Z,-4.2
2023-01-29T02:04:56.936Z,-4.1
2023-01-29T02:06:50.044Z,-4.1
2023-01-29T02:08:56.256Z,-4.0
2023-01-29T02:10:42.041Z,-4.0
2023-01-29T02:12:37.787Z,-4.0
2023-01-29T02:14:39.185Z,-3.9
2023-01-29T02:16:36.740Z,-4.1
2023-01-29T02:18:37.187Z,-4.1
2023-01-29T02:20:36.909Z,-4.1
2023-01-29T02:22:54.009Z,-4.1
2023-01-29T02:24:53.444Z,-4.1
2023-01-29T02:26:44.148Z,-4.1
2023-01-29T02:28:38.613Z,-4.0
2023-01-29T02:30:37.034Z,-4.2
2023-01-29T02:32:40.556Z,-4.2
2023-01-29T02:34:49.979Z,-3.9
2023-01-29T02:36:39.666Z,-3.9
2023-01-29T02:38:39.404Z,-3.8
2023-01-29T02:40:33.776Z,-3.8
2023-01-29T02:42:36.972Z,-3.8
2023-01-29T02:44:34.571Z,-3.8
2023-01-29T02:46:32.533Z,-3.8
2023-01-29T02:48:38.340Z,-3.8
2023-01-29T02:50:32.188Z,-4.2
2023-01-29T02:52:28.351Z,-4.3
2023-01-29T02:54:32.918Z,-4.3
2023-01-29T02:56:29.352Z,-4.2
2023-01-29T02:58:29.984Z,-4.5
2023-01-29T03:00:26.903Z,-4.5
2023-01-29T03:02:29.626Z,-4.5
2023-01-29T03:04:25.533Z,-4.5
2023-01-29T03:06:27.537Z,-4.5
2023-01-29T03:08:35.721Z,-4.3
2023-01-29T03:10:23.722Z,-4.5
2023-01-29T03:12:32.677Z,-4.3
2023-01-29T03:14:25.076Z,-4.3
2023-01-29T03:16:23.844Z,-4.4
2023-01-29T03:18:18.876Z,-4.3
2023-01-29T03:20:21.760Z,-4.4
2023-01-29T03:22:19.866Z,-4.4
2023-01-29T03:24:29.069Z,-4.4
2023-01-29T03:26:27.444Z,-4.2
2023-01-29T03:28:26.708Z,-4.3
2023-01-29T03:30:27.547Z,-4.3
2023-01-29T03:32:15.275Z,-4.4
2023-01-29T03:34:15.541Z,-4.4
2023-01-29T03:38:11.200Z,-4.4
2023-01-29T03:40:11.135Z,-4.4
2023-01-29T03:42:18.001Z,-4.5
2023-01-29T03:44:15.030Z,-4.5
2023-01-29T03:46:17.910Z,-4.5
2023-01-29T03:48:15.469Z,-4.4
2023-01-29T03:50:15.156Z,-4.7
2023-01-29T03:52:15.423Z,-4.6
2023-01-29T03:54:14.911Z,-4.5
2023-01-29T03:56:14.606Z,-4.5
2023-01-29T03:58:16.772Z,-4.7
2023-01-29T04:00:13.471Z,-4.7
2023-01-29T04:02:08.160Z,-4.7
2023-01-29T04:04:08.926Z,-4.5
2023-01-29T04:06:10.557Z,-4.6
2023-01-29T04:08:07.840Z,-4.5
2023-01-29T04:10:04.951Z,-4.6
2023-01-29T04:12:06.311Z,-4.7
2023-01-29T04:13:59.852Z,-4.6
2023-01-29T04:16:01.158Z,-4.5
2023-01-29T04:17:58.350Z,-4.5
2023-01-29T04:19:58.489Z,-4.5
2023-01-29T04:22:03.686Z,-4.4
2023-01-29T04:23:56.403Z,-4.6
2023-01-29T04:26:15.514Z,-4.7
2023-01-29T04:28:04.679Z,-4.6
2023-01-29T04:30:07.381Z,-4.5
2023-01-29T04:32:08.662Z,-4.5
2023-01-29T04:34:03.609Z,-4.6
2023-01-29T04:36:06.063Z,-4.5
2023-01-29T04:38:00.548Z,-4.4
2023-01-29T04:39:58.215Z,-4.6
2023-01-29T04:41:54.603Z,-4.6
2023-01-29T04:44:01.482Z,-4.5
2023-01-29T04:46:06.469Z,-4.6
2023-01-29T04:47:57.738Z,-4.6
2023-01-29T04:49:56.069Z,-4.5
2023-01-29T04:51:55.423Z,-4.5
2023-01-29T04:53:51.638Z,-4.5
2023-01-29T04:55:50.813Z,-4.5
2023-01-29T04:57:53.732Z,-4.4
2023-01-29T04:59:50.264Z,-4.6
2023-01-29T05:01:45.179Z,-4.5
2023-01-29T05:03:47.110Z,-4.5
2023-01-29T05:05:46.346Z,-4.4
2023-01-29T05:07:43.584Z,-4.4
2023-01-29T05:13:42.177Z,-4.3
2023-01-29T05:15:46.284Z,-4.3
2023-01-29T05:17:39.521Z,-4.3
2023-01-29T05:19:38.872Z,-4.2
2023-01-29T05:21:41.251Z,-4.2
2023-01-29T05:23:37.827Z,-4.1
2023-01-29T05:25:37.236Z,-4.0
2023-01-29T05:27:46.252Z,-4.0
2023-01-29T05:29:36.103Z,-3.9
2023-01-29T05:31:35.016Z,-4.0
2023-01-29T05:33:34.352Z,-3.9
2023-01-29T05:35:33.815Z,-3.8
2023-01-29T05:37:33.300Z,-3.8
2023-01-29T05:39:32.552Z,-3.8
2023-01-29T05:41:31.906Z,-3.7
2023-01-29T05:43:31.272Z,-3.7
2023-01-29T05:45:31.033Z,-3.6
2023-01-29T05:47:29.955Z,-3.6
2023-01-29T05:49:29.583Z,-3.5
2023-01-29T05:51:29.079Z,-3.5
2023-01-29T05:53:29.425Z,-3.5
2023-01-29T05:55:28.722Z,-3.4
2023-01-29T05:59:26.343Z,-3.4
2023-01-29T06:01:26.039Z,-3.3
2023-01-29T06:03:25.222Z,-3.3
2023-01-29T06:05:24.489Z,-3.2
2023-01-29T06:07:23.881Z,-3.3
2023-01-29T06:09:23.184Z,-3.2
2023-01-29T06:11:23.720Z,-3.2
2023-01-29T06:13:23.716Z,-3.1
2023-01-29T06:15:21.551Z,-3.1
2023-01-29T06:17:20.782Z,-3.0
2023-01-29T06:19:20.355Z,-3.0
2023-01-29T06:21:20.190Z,-3.0
2023-01-29T06:23:18.942Z,-2.9
2023-01-29T06:25:18.450Z,-2.9
2023-01-29T06:27:18.034Z,-2.9
2023-01-29T06:29:17.152Z,-2.8
2023-01-29T06:31:36.674Z,-2.9
2023-01-29T06:33:15.939Z,-2.9
2023-01-29T06:35:15.909Z,-3.0
2023-01-29T06:37:14.869Z,-3.0
2023-01-29T06:39:14.214Z,-2.9
2023-01-29T06:41:17.281Z,-3.0
2023-01-29T06:43:12.905Z,-2.9
2023-01-29T06:45:12.389Z,-2.9
2023-01-29T06:47:11.966Z,-3.0
2023-01-29T06:49:11.410Z,-2.9
2023-01-29T06:51:11.025Z,-2.8
2023-01-29T06:53:10.142Z,-2.8
2023-01-29T06:55:09.389Z,-2.7
2023-01-29T06:57:08.885Z,-2.7
2023-01-29T06:59:08.216Z,-2.7
2023-01-29T07:01:12.599Z,-2.8
2023-01-29T07:03:09.028Z,-2.7
2023-01-29T07:05:07.048Z,-2.7
2023-01-29T07:07:11.790Z,-2.7
2023-01-29T07:09:05.424Z,-2.7
2023-01-29T07:11:06.330Z,-2.6
2023-01-29T07:13:04.184Z,-2.6
2023-01-29T07:15:03.923Z,-2.6
2023-01-29T07:17:03.013Z,-2.6
2023-01-29T07:19:02.473Z,-2.5
2023-01-29T07:21:05.401Z,-2.5
2023-01-29T07:23:01.133Z,-2.5
2023-01-29T07:25:00.786Z,-2.4
2023-01-29T07:26:59.841Z,-2.4
2023-01-29T07:28:59.235Z,-2.4
2023-01-29T07:30:58.995Z,-2.4
2023-01-29T07:33:01.909Z,-2.3
2023-01-29T07:34:57.608Z,-2.3
2023-01-29T07:36:57.049Z,-2.3
2023-01-29T07:38:56.280Z,-2.2
2023-01-29T07:42:57.011Z,-2.2
2023-01-29T07:44:54.571Z,-2.2
2023-01-29T07:46:53.883Z,-2.1
2023-01-29T07:48:53.401Z,-2.1
2023-01-29T07:50:54.130Z,-2.1
2023-01-29T07:52:53.788Z,-2.0
2023-01-29T07:56:51.125Z,-2.0
2023-01-29T07:58:50.407Z,-2.0
2023-01-29T08:00:50.283Z,-2.0
2023-01-29T08:02:49.504Z,-2.0
2023-01-29T08:04:48.723Z,-2.0
2023-01-29T08:08:47.981Z,-2.0
2023-01-29T08:10:46.984Z,-1.9
2023-01-29T08:12:46.604Z,-1.9
2023-01-29T08:14:45.969Z,-1.9
2023-01-29T08:16:45.352Z,-1.9
2023-01-29T08:18:46.840Z,-1.8
2023-01-29T08:20:44.279Z,-1.8
2023-01-29T08:22:44.022Z,-1.8
2023-01-29T08:24:53.688Z,-1.8
2023-01-29T08:26:42.827Z,-1.8
2023-01-29T08:28:42.040Z,-1.7
2023-01-29T08:30:43.129Z,-1.7
2023-01-29T08:32:41.043Z,-1.6
2023-01-29T08:34:40.334Z,-1.6
2023-01-29T08:36:40.158Z,-1.6
2023-01-29T08:38:39.433Z,-1.6
2023-01-29T08:40:38.991Z,-1.6
2023-01-29T08:42:40.353Z,-1.5
2023-01-29T08:44:37.708Z,-1.5
2023-01-29T08:46:39.685Z,-1.5
2023-01-29T08:48:37.333Z,-1.5
2023-01-29T08:50:36.585Z,-1.5
2023-01-29T08:52:35.366Z,-1.4
2023-01-29T08:54:34.828Z,-1.4
2023-01-29T08:56:34.484Z,-1.4
2023-01-29T08:58:33.893Z,-1.4
2023-01-29T09:00:34.443Z,-1.4
2023-01-29T09:02:32.815Z,-1.4
2023-01-29T09:06:31.872Z,-1.3
2023-01-29T09:08:31.315Z,-1.3
2023-01-29T09:10:30.599Z,-1.2
2023-01-29T09:12:30.118Z,-1.2
2023-01-29T09:14:29.458Z,-1.2
2023-01-29T09:16:29.028Z,-1.2
2023-01-29T09:18:29.528Z,-1.1
2023-01-29T09:20:27.909Z,-1.1
2023-01-29T09:22:27.652Z,-1.1
2023-01-29T09:24:26.784Z,-1.1
2023-01-29T09:26:26.196Z,-1.0
2023-01-29T09:28:26.388Z,-1.0
2023-01-29T09:30:25.209Z,-1.0
2023-01-29T09:34:24.350Z,-0.9
2023-01-29T09:36:23.767Z,-0.9
2023-01-29T09:38:23.109Z,-0.9
2023-01-29T09:40:25.950Z,-0.9
2023-01-29T09:42:27.880Z,-0.9
2023-01-29T09:44:34.479Z,-0.8
2023-01-29T09:46:27.937Z,-0.8
2023-01-29T09:48:24.844Z,-0.8
2023-01-29T09:50:25.461Z,-0.8
2023-01-29T09:52:23.871Z,-0.7
2023-01-29T09:54:23.467Z,-0.8
2023-01-29T09:56:20.713Z,-0.7
2023-01-29T09:58:22.011Z,-0.7
2023-01-29T10:00:23.618Z,-0.7
2023-01-29T10:02:36.374Z,-0.6
2023-01-29T10:04:33.176Z,-0.7
2023-01-29T10:06:24.726Z,-0.6
2023-01-29T10:08:35.079Z,-0.6
2023-01-29T10:10:26.873Z,-0.6
2023-01-29T10:12:32.812Z,-0.5
2023-01-29T10:14:22.165Z,-0.5
2023-01-29T10:16:27.076Z,-0.5
2023-01-29T10:18:31.332Z,-0.4
2023-01-29T10:20:31.663Z,-0.4
2023-01-29T10:22:31.196Z,-0.4
2023-01-29T10:24:25.164Z,-0.3
2023-01-29T10:26:12.343Z,-0.3
2023-01-29T10:28:16.952Z,-0.3
2023-01-29T10:30:21.524Z,-0.3
2023-01-29T10:32:15.716Z,-0.2
2023-01-29T10:34:15.872Z,-0.2
2023-01-29T10:36:12.943Z,-0.2
2023-01-29T10:38:20.729Z,-0.2
2023-01-29T10:40:19.153Z,-0.2
2023-01-29T10:42:18.991Z,-0.2
2023-01-29T10:44:19.878Z,-0.1
2023-01-29T10:46:18.345Z,-0.1
2023-01-29T10:48:24.614Z,-0.1
2023-01-29T10:50:15.851Z,-0.1
2023-01-29T10:52:15.095Z,-0.1
2023-01-29T10:54:17.212Z,-0.1
2023-01-29T10:56:22.852Z,-0.0
2023-01-29T10:58:14.176Z,-0.0
2023-01-29T11:00:11.854Z,0.0
2023-01-29T11:02:02.387Z,0.0
2023-01-29T11:04:02.905Z,0.1
2023-01-29T11:06:10.592Z,0.1
2023-01-29T11:10:06.711Z,0.1
2023-01-29T11:12:02.218Z,0.2
2023-01-29T11:14:04.175Z,0.2
2023-01-29T11:15:57.545Z,0.2
2023-01-29T11:18:01.975Z,0.2
2023-01-29T11:19:56.442Z,0.3
2023-01-29T11:21:58.069Z,0.3
2023-01-29T11:24:06.879Z,0.3
2023-01-29T11:25:56.796Z,0.3
2023-01-29T11:27:56.143Z,0.4
2023-01-29T11:29:55.114Z,0.4
2023-01-29T11:31:53.878Z,0.4
2023-01-29T11:34:01.233Z,0.4
2023-01-29T11:35:52.495Z,0.5
2023-01-29T11:37:51.983Z,0.5
2023-01-29T11:39:51.553Z,0.5
2023-01-29T11:41:55.827Z,0.6
2023-01-29T11:43:50.150Z,0.5
2023-01-29T11:45:52.397Z,0.6
2023-01-29T11:49:50.647Z,0.6
2023-01-29T11:51:52.800Z,0.6
2023-01-29T11:53:51.773Z,0.7
2023-01-29T11:55:50.858Z,0.7
2023-01-29T11:57:50.980Z,0.7
2023-01-29T11:59:49.960Z,0.8
2023-01-29T12:01:45.935Z,0.8
2023-01-29T12:03:51.024Z,0.8
2023-01-29T12:05:54.238Z,0.8
2023-01-29T12:07:48.433Z,0.9
2023-01-29T12:09:52.471Z,0.9
2023-01-29T12:11:43.495Z,1.0
2023-01-29T12:13:42.969Z,1.1
2023-01-29T12:15:42.633Z,1.1
2023-01-29T12:17:46.653Z,1.1
2023-01-29T12:19:45.795Z,1.1
2023-01-29T12:21:46.741Z,1.2
2023-01-29T12:23:46.274Z,1.2
2023-01-29T12:25:46.732Z,1.2
2023-01-29T12:29:45.834Z,1.2
2023-01-29T12:31:45.886Z,1.2
2023-01-29T12:35:45.119Z,1.2
2023-01-29T12:37:47.571Z,1.3
2023-01-29T12:41:40.548Z,1.4
2023-01-29T12:43:41.293Z,1.4
2023-01-29T12:45:36.744Z,1.5
2023-01-29T12:47:40.382Z,1.5
2023-01-29T12:49:38.197Z,1.5
2023-01-29T12:51:39.770Z,1.5
2023-01-29T12:53:38.525Z,1.5
2023-01-29T12:55:38.516Z,1.6
2023-01-29T12:57:40.819Z,1.6
2023-01-29T12:59:37.121Z,1.6
2023-01-29T13:01:35.842Z,1.6
2023-01-29T13:03:36.775Z,1.6
2023-01-29T13:05:35.676Z,1.7
2023-01-29T13:07:33.337Z,1.7
2023-01-29T13:09:32.647Z,1.7
2023-01-29T13:11:36.086Z,1.7
2023-01-29T13:13:32.702Z,1.7
2023-01-29T13:15:31.441Z,1.8
2023-01-29T13:17:34.944Z,1.8
2023-01-29T13:19:31.030Z,1.7
2023-01-29T13:21:30.003Z,1.8
2023-01-29T13:23:31.679Z,1.8
2023-01-29T13:25:24.914Z,1.8
2023-01-29T13:27:26.862Z,1.9
2023-01-29T13:29:25.774Z,1.9
2023-01-29T13:31:28.603Z,1.9
2023-01-29T13:33:23.535Z,1.9
2023-01-29T13:35:22.968Z,1.9
2023-01-29T13:37:28.869Z,1.8
2023-01-29T13:39:26.229Z,1.9
2023-01-29T13:41:31.842Z,1.9
2023-01-29T13:43:23.014Z,1.9
2023-01-29T13:45:22.694Z,1.9
2023-01-29T13:47:25.339Z,1.9
2023-01-29T13:49:32.409Z,1.9
2023-01-29T13:51:21.599Z,1.9
2023-01-29T13:53:23.268Z,1.9
2023-01-29T13:55:25.106Z,1.9
2023-01-29T13:57:37.893Z,1.9
2023-01-29T13:59:22.060Z,1.9
2023-01-29T14:01:20.093Z,1.9
2023-01-29T14:03:56.148Z,1.9
2023-01-29T14:05:35.037Z,1.9
2023-01-29T14:07:34.487Z,1.9
2023-01-29T14:09:33.043Z,1.9
2023-01-29T14:11:28.095Z,1.9
2023-01-29T14:13:25.678Z,1.9
2023-01-29T14:15:21.088Z,1.9
2023-01-29T14:17:13.484Z,1.9
2023-01-29T14:19:18.021Z,1.9
2023-01-29T14:21:20.910Z,1.9
2023-01-29T14:23:21.641Z,1.9
2023-01-29T14:25:18.024Z,1.9
2023-01-29T14:27:20.672Z,2.0
2023-01-29T14:29:21.622Z,2.0
2023-01-29T14:31:10.184Z,1.9
2023-01-29T14:33:23.605Z,2.0
2023-01-29T14:35:18.099Z,2.0
2023-01-29T14:37:19.497Z,2.0
2023-01-29T14:39:22.796Z,1.9
2023-01-29T14:41:18.157Z,1.9
2023-01-29T14:43:18.865Z,2.0
2023-01-29T14:45:10.491Z,2.0
2023-01-29T14:47:05.120Z,2.0
2023-01-29T14:49:07.421Z,2.0
2023-01-29T14:51:09.738Z,2.0
2023-01-29T14:53:10.874Z,2.0
2023-01-29T14:57:07.566Z,2.0
2023-01-29T14:59:13.141Z,1.9
2023-01-29T15:03:11.203Z,1.9
2023-01-29T15:05:03.593Z,1.9
2023-01-29T15:07:05.053Z,1.9
2023-01-29T15:09:09.219Z,1.9
2023-01-29T15:11:13.117Z,1.9
2023-01-29T15:13:02.443Z,1.9
2023-01-29T15:15:07.104Z,1.9
2023-01-29T15:17:16.170Z,1.9
2023-01-29T15:19:10.965Z,1.9
2023-01-29T15:21:04.033Z,1.9
2023-01-29T15:22:56.703Z,1.9
2023-01-29T15:26:56.120Z,1.9
2023-01-29T15:29:03.333Z,1.9
2023-01-29T15:30:58.183Z,1.9
2023-01-29T15:32:55.789Z,1.9
2023-01-29T15:34:54.869Z,1.8
2023-01-29T15:36:53.319Z,1.8
2023-01-29T15:39:12.608Z,1.8
2023-01-29T15:40:53.641Z,1.8
2023-01-29T15:42:52.006Z,1.8
2023-01-29T15:44:53.589Z,1.8
2023-01-29T15:46:54.976Z,1.8
2023-01-29T15:48:52.378Z,1.8
2023-01-29T15:50:53.706Z,1.8
2023-01-29T15:52:52.271Z,1.8
2023-01-29T15:54:50.338Z,1.8
2023-01-29T15:56:51.721Z,1.8
2023-01-29T15:58:50.276Z,1.7
2023-01-29T16:00:49.219Z,1.8
2023-01-29T16:02:47.549Z,1.7
2023-01-29T16:04:46.979Z,1.7
2023-01-29T16:06:47.788Z,1.7
2023-01-29T16:08:49.906Z,1.7
2023-01-29T16:10:51.649Z,1.7
2023-01-29T16:12:50.243Z,1.7
2023-01-29T16:14:45.358Z,1.7
2023-01-29T16:16:44.387Z,1.7
2023-01-29T16:18:58.982Z,1.7
2023-01-29T16:20:46.325Z,1.7
2023-01-29T16:22:43.760Z,1.7
2023-01-29T16:24:41.955Z,1.7
2023-01-29T16:26:43.895Z,1.7
2023-01-29T16:28:42.595Z,1.7
2023-01-29T16:30:40.670Z,1.6
2023-01-29T16:32:40.641Z,1.7
2023-01-29T16:34:41.958Z,1.7
2023-01-29T16:36:44.953Z,1.7
2023-01-29T16:38:42.190Z,1.7
2023-01-29T16:40:39.831Z,1.7
2023-01-29T16:42:37.727Z,1.7
2023-01-29T16:44:38.962Z,1.7
2023-01-29T16:46:37.856Z,1.7
2023-01-29T16:48:36.115Z,1.7
2023-01-29T16:50:46.421Z,1.7
2023-01-29T16:52:35.542Z,1.7
2023-01-29T16:54:41.785Z,1.7
2023-01-29T16:58:34.740Z,1.7
2023-01-29T17:00:33.276Z,1.7
2023-01-29T17:02:37.824Z,1.7
2023-01-29T17:04:32.409Z,1.7
2023-01-29T17:08:33.385Z,1.7
2023-01-29T17:10:31.756Z,1.7
2023-01-29T17:12:31.866Z,1.7
2023-01-29T17:16:31.478Z,1.7
2023-01-29T17:18:29.086Z,1.7
2023-01-29T17:20:29.793Z,1.7
2023-01-29T17:22:28.136Z,1.6
2023-01-29T17:24:27.282Z,1.5
2023-01-29T17:26:26.947Z,1.6
2023-01-29T17:28:26.442Z,1.6
2023-01-29T17:30:29.689Z,1.6
2023-01-29T17:32:26.634Z,1.5
2023-01-29T17:34:25.617Z,1.6
2023-01-29T17:36:25.120Z,1.6
2023-01-29T17:38:26.339Z,1.5
2023-01-29T17:40:32.338Z,1.5
2023-01-29T17:42:24.216Z,1.5
2023-01-29T17:44:25.085Z,1.5
2023-01-29T17:46:22.217Z,1.5
2023-01-29T17:48:23.285Z,1.5
2023-01-29T17:50:23.746Z,1.5
2023-01-29T17:52:20.628Z,1.5
2023-01-29T17:54:21.044Z,1.5
2023-01-29T17:56:26.463Z,1.5
2023-01-29T17:58:20.964Z,1.5
2023-01-29T18:00:21.846Z,1.5
2023-01-29T18:02:28.755Z,1.5
2023-01-29T18:04:17.950Z,1.5
2023-01-29T18:08:17.981Z,1.6
2023-01-29T18:10:19.036Z,1.6
2023-01-29T18:12:15.564Z,1.6
2023-01-29T18:14:16.373Z,1.5
2023-01-29T18:16:17.175Z,1.6
2023-01-29T18:18:17.188Z,1.6
2023-01-29T18:20:18.687Z,1.6
2023-01-29T18:22:13.381Z,1.6
2023-01-29T18:24:12.688Z,1.6
2023-01-29T18:26:15.011Z,1.6
2023-01-29T18:28:14.939Z,1.6
2023-01-29T18:30:12.528Z,1.6
2023-01-29T18:32:10.979Z,1.6
2023-01-29T18:36:10.115Z,1.6
2023-01-29T18:38:09.317Z,1.6
2023-01-29T18:40:12.782Z,1.6
2023-01-29T18:42:08.323Z,1.6
2023-01-29T18:44:09.124Z,1.5
2023-01-29T18:46:07.984Z,1.6
2023-01-29T18:48:07.297Z,1.6
2023-01-29T18:50:07.793Z,1.5
2023-01-29T18:52:06.573Z,1.5
2023-01-29T18:54:05.473Z,1.5
2023-01-29T18:56:06.232Z,1.5
2023-01-29T18:58:33.546Z,1.5
2023-01-29T19:00:04.662Z,1.7
2023-01-29T19:02:03.729Z,1.6
2023-01-29T19:04:03.183Z,1.7
2023-01-29T19:06:04.176Z,1.6
2023-01-29T19:08:02.088Z,1.7
2023-01-29T19:10:05.643Z,1.7
2023-01-29T19:12:01.244Z,1.7
2023-01-29T19:14:00.622Z,1.7
2023-01-29T19:16:01.445Z,1.6
2023-01-29T19:17:59.820Z,1.7
2023-01-29T19:20:01.515Z,1.7
2023-01-29T19:21:58.853Z,1.7
2023-01-29T19:23:58.734Z,1.7
2023-01-29T19:25:57.877Z,1.7
2023-01-29T19:27:57.363Z,1.7
2023-01-29T19:29:58.478Z,1.8
2023-01-29T19:31:56.442Z,1.7
2023-01-29T19:33:55.882Z,1.7
2023-01-29T19:37:55.253Z,1.7
2023-01-29T19:39:54.681Z,1.7
2023-01-29T19:41:54.011Z,1.7
2023-01-29T19:43:53.576Z,1.7
2023-01-29T19:45:56.698Z,1.7
2023-01-29T19:47:53.383Z,1.6
2023-01-29T19:49:52.400Z,1.6
2023-01-29T19:51:54.929Z,1.6
2023-01-29T19:53:51.374Z,1.6
2023-01-29T19:55:59.071Z,1.6
2023-01-29T19:57:51.541Z,1.6
2023-01-29T19:59:49.764Z,1.6
2023-01-29T20:01:49.878Z,1.6
2023-01-29T20:03:48.978Z,1.5
2023-01-29T20:05:48.391Z,1.6
2023-01-29T20:07:49.109Z,1.6
2023-01-29T20:09:48.262Z,1.6
2023-01-29T20:11:46.912Z,1.5
2023-01-29T20:13:48.667Z,1.5
2023-01-29T20:15:46.979Z,1.5
2023-01-29T20:17:45.547Z,1.5
2023-01-29T20:19:45.200Z,1.5
2023-01-29T20:21:46.208Z,1.5
2023-01-29T20:23:45.661Z,1.5
2023-01-29T20:25:44.134Z,1.6
2023-01-29T20:27:43.161Z,1.5
2023-01-29T20:29:44.235Z,1.5
2023-01-29T20:31:42.237Z,1.5
2023-01-29T20:33:41.575Z,1.5
2023-01-29T20:35:41.119Z,1.5
2023-01-29T20:37:40.853Z,1.5
2023-01-29T20:39:40.204Z,1.6
2023-01-29T20:41:40.679Z,1.6
2023-01-29T20:43:39.875Z,1.6
2023-01-29T20:45:39.189Z,1.6
2023-01-29T20:47:38.284Z,1.7
2023-01-29T20:49:38.107Z,1.6
2023-01-29T20:51:37.698Z,1.7
2023-01-29T20:53:37.164Z,1.7
2023-01-29T20:55:36.373Z,1.7
2023-01-29T20:57:36.751Z,1.7
2023-01-29T20:59:35.259Z,1.7
2023-01-29T21:01:35.252Z,1.7
2023-01-29T21:03:34.431Z,1.7
2023-01-29T21:05:33.812Z,1.7
2023-01-29T21:07:33.424Z,1.7
2023-01-29T21:09:32.863Z,1.7
2023-01-29T21:11:32.629Z,1.8
2023-01-29T21:15:31.957Z,1.8
2023-01-29T21:17:31.076Z,1.8
2023-01-29T21:19:30.621Z,1.8
2023-01-29T21:21:30.009Z,1.8
2023-01-29T21:23:29.605Z,1.8
2023-01-29T21:25:29.113Z,1.9
2023-01-29T21:27:28.895Z,1.9
2023-01-29T21:29:28.406Z,1.9
2023-01-29T21:31:27.764Z,1.9
2023-01-29T21:33:27.143Z,1.9
2023-01-29T21:35:26.707Z,1.9
2023-01-29T21:39:26.113Z,2.0
2023-01-29T21:41:35.607Z,2.0
2023-01-29T21:43:24.815Z,2.0
2023-01-29T21:45:24.469Z,2.0
2023-01-29T21:47:23.880Z,2.0
2023-01-29T21:49:23.914Z,2.0
2023-01-29T21:51:23.505Z,2.1
2023-01-29T21:53:22.469Z,2.1
2023-01-29T21:57:25.677Z,2.1
2023-01-29T21:59:21.039Z,2.2
2023-01-29T22:01:37.843Z,2.2
2023-01-29T22:03:20.475Z,2.2
2023-01-29T22:05:20.429Z,2.2
2023-01-29T22:07:19.168Z,2.2
2023-01-29T22:09:18.967Z,2.2
2023-01-29T22:11:18.275Z,2.2
2023-01-29T22:13:18.243Z,2.3
2023-01-29T22:15:17.629Z,2.3
2023-01-29T22:17:19.146Z,2.3
2023-01-29T22:19:16.365Z,2.3
2023-01-29T22:21:16.118Z,2.4
2023-01-29T22:23:15.401Z,2.4
2023-01-29T22:25:18.925Z,2.4
2023-01-29T22:29:15.973Z,2.5
2023-01-29T22:31:13.802Z,2.4
2023-01-29T22:33:13.051Z,2.5
2023-01-29T22:35:12.990Z,2.5
2023-01-29T22:37:12.127Z,2.5
2023-01-29T22:39:11.931Z,2.5
2023-01-29T22:41:12.503Z,2.5
2023-01-29T22:43:10.702Z,2.5
2023-01-29T22:45:10.992Z,2.5
2023-01-29T22:47:09.797Z,2.5
2023-01-29T22:49:09.683Z,2.5
2023-01-29T22:51:09.942Z,2.5
2023-01-29T22:53:09.183Z,2.5
2023-01-29T22:55:09.592Z,2.5
2023-01-29T22:57:09.370Z,2.5
2023-01-29T22:59:09.307Z,2.5
2023-01-29T23:01:07.098Z,2.6
2023-01-29T23:03:06.077Z,2.6
2023-01-29T23:05:06.817Z,2.6
2023-01-29T23:07:05.294Z,2.6
2023-01-29T23:09:04.731Z,2.6
2023-01-29T23:11:12.836Z,2.7
2023-01-29T23:13:03.739Z,2.7
2023-01-29T23:15:05.667Z,2.7
2023-01-29T23:17:03.240Z,2.7
2023-01-29T23:19:02.625Z,2.7
2023-01-29T23:21:02.907Z,2.7
2023-01-29T23:23:01.534Z,2.7
2023-01-29T23:25:01.743Z,2.7
2023-01-29T23:27:10.446Z,2.8
2023-01-29T23:29:00.352Z,2.8
2023-01-29T23:30:59.727Z,2.8
2023-01-29T23:32:59.107Z,2.8
2023-01-29T23:34:58.701Z,2.8
2023-01-29T23:38:57.793Z,2.8
2023-01-29T23:40:57.857Z,2.8
2023-01-29T23:42:56.699Z,2.8
2023-01-29T23:44:56.227Z,2.8
2023-01-29T23:46:56.043Z,2.8
2023-01-29T23:48:55.357Z,2.8
2023-01-29T23:50:54.849Z,2.8
2023-01-29T23:52:54.790Z,2.9
2023-01-29T23:54:53.941Z,2.9
2023-01-29T23:56:53.425Z,2.9
2023-01-29T23:58:53.812Z,2.9
